createdAt,value
2023-03-08T00:01:26.884Z,98510.59
2023-03-08T00:03:56.928Z,98514.91
2023-03-08T00:06:28.364Z,98515.78
2023-03-08T00:08:59.274Z,98525.16
2023-03-08T00:11:30.424Z,98513.09
2023-03-08T00:13:59.427Z,98516.50
2023-03-08T00:16:27.953Z,98513.16
2023-03-08T00:18:56.490Z,98524.28
2023-03-08T00:21:24.906Z,98521.78
2023-03-08T00:23:54.884Z,98526.13
2023-03-08T00:26:23.930Z,98520.13
2023-03-08T00:28:53.999Z,98515.88
2023-03-08T00:31:22.889Z,98521.78
2023-03-08T00:33:55.348Z,98516.69
2023-03-08T00:36:24.061Z,98509.78
2023-03-08T00:38:53.120Z,98517.47
2023-03-08T00:41:21.827Z,98503.88
2023-03-08T00:43:50.364Z,98510.75
2023-03-08T00:46:20.340Z,98510.75
2023-03-08T00:48:49.117Z,98507.38
2023-03-08T00:51:20.073Z,98515.06
2023-03-08T00:53:49.349Z,98516.81
2023-03-08T00:56:18.040Z,98506.56
2023-03-08T00:58:47.558Z,98502.38
2023-03-08T01:01:20.207Z,98504.88
2023-03-08T01:03:50.808Z,98509.94
2023-03-08T01:06:20.076Z,98503.06
2023-03-08T01:08:48.919Z,98502.25
2023-03-08T01:11:21.533Z,98502.25
2023-03-08T01:13:52.107Z,98494.59
2023-03-08T01:16:25.663Z,98483.47
2023-03-08T01:18:54.627Z,98488.41
2023-03-08T01:21:24.128Z,98489.31
2023-03-08T01:23:52.955Z,98473.06
2023-03-08T01:26:25.709Z,98479.06
2023-03-08T01:28:58.046Z,98473.94
2023-03-08T01:31:30.354Z,98470.56
2023-03-08T01:34:00.631Z,98471.44
2023-03-08T01:36:30.024Z,98460.41
2023-03-08T01:39:01.071Z,98463.00
2023-03-08T01:41:32.138Z,98463.09
2023-03-08T01:44:01.216Z,98456.28
2023-03-08T01:46:33.708Z,98456.28
2023-03-08T01:49:21.799Z,98454.53
2023-03-08T01:51:56.821Z,98450.28
2023-03-08T01:54:30.363Z,98446.91
2023-03-08T01:57:04.613Z,98446.09
2023-03-08T01:59:35.109Z,98439.22
2023-03-08T02:02:05.770Z,98438.34
2023-03-08T02:04:36.830Z,98426.34
2023-03-08T02:07:10.250Z,98428.09
2023-03-08T02:09:39.316Z,98429.84
2023-03-08T02:12:13.236Z,98425.63
2023-03-08T02:14:44.569Z,98414.50
2023-03-08T02:17:14.980Z,98419.59
2023-03-08T02:19:51.101Z,98406.88
2023-03-08T02:22:20.146Z,98405.94
2023-03-08T02:24:50.142Z,98399.13
2023-03-08T02:27:22.965Z,98390.63
2023-03-08T02:29:51.546Z,98393.13
2023-03-08T02:32:20.345Z,98379.44
2023-03-08T02:34:49.233Z,98389.75
2023-03-08T02:37:17.610Z,98373.50
2023-03-08T02:39:51.692Z,98387.13
2023-03-08T02:42:20.083Z,98393.13
2023-03-08T02:44:48.542Z,98376.88
2023-03-08T02:47:18.531Z,98388.88
2023-03-08T02:49:49.693Z,98389.66
2023-03-08T02:52:18.030Z,98387.91
2023-03-08T02:54:46.513Z,98392.25
2023-03-08T02:57:16.684Z,98378.63
2023-03-08T02:59:46.519Z,98377.66
2023-03-08T03:02:16.131Z,98382.00
2023-03-08T03:04:45.214Z,98366.53
2023-03-08T03:07:14.665Z,98377.59
2023-03-08T03:09:43.158Z,98378.47
2023-03-08T03:12:11.849Z,98370.78
2023-03-08T03:14:43.788Z,98368.22
2023-03-08T03:17:12.888Z,98366.50
2023-03-08T03:19:41.210Z,98356.09
2023-03-08T03:22:09.615Z,98358.75
2023-03-08T03:24:37.956Z,98353.53
2023-03-08T03:27:08.249Z,98369.78
2023-03-08T03:29:39.576Z,98368.03
2023-03-08T03:32:19.447Z,98369.72
2023-03-08T03:34:48.405Z,98352.59
2023-03-08T03:37:18.767Z,98356.91
2023-03-08T03:39:47.341Z,98349.19
2023-03-08T03:42:19.402Z,98357.72
2023-03-08T03:44:54.867Z,98356.88
2023-03-08T03:47:25.740Z,98344.84
2023-03-08T03:49:58.879Z,98349.97
2023-03-08T03:52:31.021Z,98347.34
2023-03-08T03:55:04.592Z,98349.97
2023-03-08T03:57:33.453Z,98348.22
2023-03-08T04:00:02.462Z,98349.91
2023-03-08T04:02:32.878Z,98343.09
2023-03-08T04:05:01.855Z,98332.78
2023-03-08T04:07:34.517Z,98336.28
2023-03-08T04:10:03.479Z,98339.72
2023-03-08T04:12:33.513Z,98327.72
2023-03-08T04:15:02.040Z,98316.63
2023-03-08T04:17:34.932Z,98313.16
2023-03-08T04:20:04.339Z,98306.44
2023-03-08T04:22:36.686Z,98293.63
2023-03-08T04:25:16.160Z,98293.56
2023-03-08T04:27:50.836Z,98297.00
2023-03-08T04:30:21.944Z,98291.00
2023-03-08T04:32:52.729Z,98288.50
2023-03-08T04:35:23.804Z,98292.75
2023-03-08T04:37:55.101Z,98286.75
2023-03-08T04:40:30.048Z,98287.63
2023-03-08T04:43:02.001Z,98295.31
2023-03-08T04:45:38.972Z,98283.31
2023-03-08T04:48:13.621Z,98279.94
2023-03-08T04:50:41.971Z,98274.81
2023-03-08T04:53:11.420Z,98275.63
2023-03-08T04:55:39.909Z,98278.28
2023-03-08T04:58:08.524Z,98266.28
2023-03-08T05:00:37.348Z,98263.69
2023-03-08T05:03:07.334Z,98254.25
2023-03-08T05:05:37.408Z,98254.34
2023-03-08T05:08:06.369Z,98247.47
2023-03-08T05:10:38.316Z,98239.78
2023-03-08T05:13:07.377Z,98229.53
2023-03-08T05:15:36.067Z,98239.78
2023-03-08T05:18:05.025Z,98241.38
2023-03-08T05:20:33.736Z,98242.25
2023-03-08T05:23:03.735Z,98234.59
2023-03-08T05:25:44.767Z,98235.47
2023-03-08T05:28:16.023Z,98236.25
2023-03-08T05:30:46.246Z,98212.41
2023-03-08T05:33:16.388Z,98214.97
2023-03-08T05:35:45.053Z,98219.13
2023-03-08T05:38:16.323Z,98210.66
2023-03-08T05:40:45.570Z,98209.78
2023-03-08T05:43:16.060Z,98205.53
2023-03-08T05:45:45.128Z,98192.63
2023-03-08T05:48:13.764Z,98195.16
2023-03-08T05:50:42.368Z,98197.66
2023-03-08T05:53:10.861Z,98196.66
2023-03-08T05:55:41.541Z,98186.34
2023-03-08T05:58:10.974Z,98182.03
2023-03-08T06:00:39.520Z,98178.59
2023-03-08T06:03:08.272Z,98170.91
2023-03-08T06:05:39.005Z,98163.25
2023-03-08T06:08:07.769Z,98164.03
2023-03-08T06:10:36.180Z,98158.91
2023-03-08T06:13:05.952Z,98156.38
2023-03-08T06:15:34.481Z,98148.56
2023-03-08T06:18:03.399Z,98149.44
2023-03-08T06:20:32.923Z,98151.91
2023-03-08T06:23:02.054Z,98148.28
2023-03-08T06:25:32.502Z,98148.28
2023-03-08T06:28:02.053Z,98139.66
2023-03-08T06:30:41.604Z,98134.53
2023-03-08T06:33:10.457Z,98128.53
2023-03-08T06:35:39.296Z,98127.69
2023-03-08T06:38:08.413Z,98125.13
2023-03-08T06:40:39.130Z,98119.94
2023-03-08T06:43:08.009Z,98112.09
2023-03-08T06:45:39.330Z,98104.44
2023-03-08T06:48:10.240Z,98103.44
2023-03-08T06:50:39.053Z,98101.69
2023-03-08T06:53:07.686Z,98102.50
2023-03-08T06:56:03.936Z,98096.47
2023-03-08T06:58:34.910Z,98087.03
2023-03-08T07:01:04.720Z,98092.94
2023-03-08T07:03:35.252Z,98091.28
2023-03-08T07:06:07.104Z,98097.19
2023-03-08T07:08:36.246Z,98085.97
2023-03-08T07:11:06.552Z,98092.84
2023-03-08T07:13:35.275Z,98080.72
2023-03-08T07:16:08.505Z,98084.22
2023-03-08T07:18:38.609Z,98080.72
2023-03-08T07:21:08.191Z,98073.84
2023-03-08T07:23:36.692Z,98072.09
2023-03-08T07:26:07.715Z,98077.22
2023-03-08T07:28:37.125Z,98063.50
2023-03-08T07:31:06.020Z,98056.50
2023-03-08T07:33:34.842Z,98057.38
2023-03-08T07:36:05.672Z,98066.75
2023-03-08T07:38:34.085Z,98063.22
2023-03-08T07:41:02.609Z,98065.72
2023-03-08T07:43:30.994Z,98061.47
2023-03-08T07:46:02.995Z,98055.44
2023-03-08T07:48:32.420Z,98051.13
2023-03-08T07:51:09.417Z,98053.63
2023-03-08T07:53:38.919Z,98049.22
2023-03-08T07:56:08.616Z,98046.63
2023-03-08T07:58:37.163Z,98051.59
2023-03-08T08:01:10.464Z,98045.34
2023-03-08T08:03:39.822Z,98047.69
2023-03-08T08:06:10.932Z,98050.25
2023-03-08T08:08:39.403Z,98046.03
2023-03-08T08:11:20.176Z,98028.28
2023-03-08T08:13:48.928Z,98025.72
2023-03-08T08:16:18.630Z,98007.81
2023-03-08T08:18:47.432Z,98005.31
2023-03-08T08:21:17.917Z,97999.31
2023-03-08T08:23:46.996Z,98001.03
2023-03-08T08:26:18.242Z,97993.38
2023-03-08T08:28:49.346Z,98006.19
2023-03-08T08:31:20.780Z,97984.72
2023-03-08T08:33:49.461Z,97994.97
2023-03-08T08:36:21.736Z,97989.91
2023-03-08T08:38:50.966Z,97983.84
2023-03-08T08:41:22.327Z,97976.97
2023-03-08T08:43:51.576Z,97964.09
2023-03-08T08:46:20.054Z,97967.38
2023-03-08T08:48:48.662Z,97959.59
2023-03-08T08:51:18.516Z,97956.09
2023-03-08T08:53:46.901Z,97948.34
2023-03-08T08:56:26.567Z,97944.03
2023-03-08T08:58:57.697Z,97956.81
2023-03-08T09:01:28.801Z,97937.22
2023-03-08T09:03:57.975Z,97942.31
2023-03-08T09:06:29.533Z,97936.38
2023-03-08T09:09:00.073Z,97925.22
2023-03-08T09:11:29.431Z,97924.41
2023-03-08T09:13:58.136Z,97925.28
2023-03-08T09:16:30.124Z,97926.09
2023-03-08T09:19:01.160Z,97928.59
2023-03-08T09:21:33.512Z,97915.72
2023-03-08T09:24:04.515Z,97911.50
2023-03-08T09:26:34.887Z,97902.13
2023-03-08T09:29:07.456Z,97899.50
2023-03-08T09:31:38.898Z,97897.72
2023-03-08T09:34:09.384Z,97900.28
2023-03-08T09:36:40.447Z,97898.72
2023-03-08T09:39:09.931Z,97896.28
2023-03-08T09:41:57.923Z,97888.00
2023-03-08T09:44:57.048Z,97888.00
2023-03-08T09:47:34.883Z,97896.53
2023-03-08T09:50:16.485Z,97891.28
2023-03-08T09:52:52.113Z,97894.66
2023-03-08T09:55:29.884Z,97891.28
2023-03-08T09:58:02.242Z,97886.25
2023-03-08T10:00:34.404Z,97891.53
2023-03-08T10:03:37.845Z,97883.84
2023-03-08T10:06:13.664Z,97871.06
2023-03-08T10:08:52.786Z,97869.31
2023-03-08T10:11:29.472Z,97867.56
2023-03-08T10:14:04.152Z,97858.22
2023-03-08T10:16:37.776Z,97869.31
2023-03-08T10:19:14.761Z,97868.50
2023-03-08T10:21:45.908Z,97864.34
2023-03-08T10:24:26.616Z,97855.91
2023-03-08T10:26:56.585Z,97863.53
2023-03-08T10:29:25.364Z,97863.66
2023-03-08T10:31:53.825Z,97863.72
2023-03-08T10:34:27.415Z,97855.22
2023-03-08T10:37:02.935Z,97850.16
2023-03-08T10:39:33.051Z,97844.28
2023-03-08T10:42:03.775Z,97835.69
2023-03-08T10:44:36.995Z,97832.25
2023-03-08T10:47:20.276Z,97821.97
2023-03-08T10:49:49.061Z,97816.00
2023-03-08T10:52:26.936Z,97806.66
2023-03-08T10:55:05.996Z,97800.69
2023-03-08T10:57:35.521Z,97793.84
2023-03-08T11:00:18.778Z,97809.19
2023-03-08T11:02:48.854Z,97806.56
2023-03-08T11:05:23.942Z,97797.31
2023-03-08T11:07:54.499Z,97812.81
2023-03-08T11:10:27.930Z,97803.53
2023-03-08T11:13:04.724Z,97811.31
2023-03-08T11:15:37.225Z,97802.91
2023-03-08T11:18:29.540Z,97806.41
2023-03-08T11:21:03.383Z,97828.78
2023-03-08T11:23:40.166Z,97822.88
2023-03-08T11:26:22.275Z,97812.72
2023-03-08T11:29:07.656Z,97805.13
2023-03-08T11:31:43.433Z,97805.16
2023-03-08T11:34:41.255Z,97790.72
2023-03-08T11:37:21.486Z,97798.41
2023-03-08T11:39:56.332Z,97790.00
2023-03-08T11:42:41.697Z,97773.75
2023-03-08T11:45:27.044Z,97780.63
2023-03-08T11:48:34.281Z,97776.25
2023-03-08T11:51:07.990Z,97783.88
2023-03-08T11:53:52.227Z,97783.06
2023-03-08T11:56:42.214Z,97774.66
2023-03-08T11:59:21.158Z,97782.47
2023-03-08T12:01:54.852Z,97791.94
2023-03-08T12:04:31.151Z,97787.75
2023-03-08T12:07:04.645Z,97772.41
2023-03-08T12:09:38.654Z,97772.47
2023-03-08T12:12:15.997Z,97768.97
2023-03-08T12:14:54.132Z,97779.19
2023-03-08T12:17:27.623Z,97779.25
2023-03-08T12:19:56.731Z,97769.84
2023-03-08T12:22:35.528Z,97772.53
2023-03-08T12:25:14.194Z,97767.34
2023-03-08T12:27:49.703Z,97769.84
2023-03-08T12:30:29.080Z,97761.28
2023-03-08T12:33:00.219Z,97771.44
2023-03-08T12:35:33.254Z,97768.06
2023-03-08T12:38:05.078Z,97760.31
2023-03-08T12:40:46.044Z,97746.66
2023-03-08T12:43:29.368Z,97742.34
2023-03-08T12:46:08.467Z,97737.28
2023-03-08T12:48:40.077Z,97729.66
2023-03-08T12:51:21.961Z,97729.69
2023-03-08T12:54:01.614Z,97722.88
2023-03-08T12:56:34.080Z,97725.38
2023-03-08T12:59:23.737Z,97721.16
2023-03-08T13:02:18.089Z,97732.22
2023-03-08T13:04:47.188Z,97731.16
2023-03-08T13:07:28.364Z,97723.47
2023-03-08T13:10:06.084Z,97723.53
2023-03-08T13:13:01.137Z,97720.13
2023-03-08T13:15:29.857Z,97725.16
2023-03-08T13:18:06.672Z,97726.91
2023-03-08T13:20:56.179Z,97735.41
2023-03-08T13:23:32.807Z,97732.00
2023-03-08T13:26:19.055Z,97720.94
2023-03-08T13:28:48.634Z,97706.50
2023-03-08T13:31:20.935Z,97708.25
2023-03-08T13:33:53.978Z,97725.34
2023-03-08T13:36:25.166Z,97717.56
2023-03-08T13:39:00.470Z,97715.94
2023-03-08T13:41:37.488Z,97704.75
2023-03-08T13:44:08.511Z,97705.63
2023-03-08T13:46:42.511Z,97703.94
2023-03-08T13:49:29.845Z,97704.69
2023-03-08T13:52:01.720Z,97706.28
2023-03-08T13:54:33.398Z,97706.19
2023-03-08T13:57:05.492Z,97715.59
2023-03-08T13:59:38.015Z,97704.44
2023-03-08T14:02:21.553Z,97692.47
2023-03-08T14:04:52.110Z,97680.47
2023-03-08T14:07:27.315Z,97677.84
2023-03-08T14:09:56.055Z,97676.09
2023-03-08T14:12:28.834Z,97684.69
2023-03-08T14:15:00.752Z,97689.81
2023-03-08T14:17:31.890Z,97667.69
2023-03-08T14:20:07.334Z,97671.25
2023-03-08T14:22:40.611Z,97675.59
2023-03-08T14:25:28.210Z,97682.44
2023-03-08T14:27:57.534Z,97683.25
2023-03-08T14:30:28.593Z,97678.94
2023-03-08T14:33:08.146Z,97666.16
2023-03-08T14:35:41.413Z,97666.16
2023-03-08T14:38:15.372Z,97659.34
2023-03-08T14:40:49.918Z,97672.22
2023-03-08T14:43:21.266Z,97673.03
2023-03-08T14:45:56.159Z,97661.97
2023-03-08T14:48:29.915Z,97663.66
2023-03-08T14:51:02.611Z,97657.66
2023-03-08T14:53:34.919Z,97661.03
2023-03-08T14:56:07.861Z,97643.13
2023-03-08T14:58:39.863Z,97638.00
2023-03-08T15:01:08.748Z,97629.53
2023-03-08T15:03:37.352Z,97632.00
2023-03-08T15:06:17.024Z,97628.56
2023-03-08T15:08:45.452Z,97633.53
2023-03-08T15:11:14.025Z,97636.03
2023-03-08T15:13:42.545Z,97629.16
2023-03-08T15:16:14.297Z,97636.03
2023-03-08T15:18:43.057Z,97644.56
2023-03-08T15:21:16.006Z,97636.94
2023-03-08T15:23:44.589Z,97640.34
2023-03-08T15:26:20.888Z,97637.84
2023-03-08T15:28:49.389Z,97644.66
2023-03-08T15:31:17.801Z,97649.03
2023-03-08T15:33:46.411Z,97646.56
2023-03-08T15:36:18.545Z,97648.31
2023-03-08T15:38:47.611Z,97650.81
2023-03-08T15:41:17.766Z,97647.38
2023-03-08T15:43:46.455Z,97643.84
2023-03-08T15:46:16.635Z,97643.84
2023-03-08T15:48:46.163Z,97635.31
2023-03-08T15:51:19.977Z,97631.94
2023-03-08T15:53:48.373Z,97638.81
2023-03-08T15:56:17.777Z,97644.81
2023-03-08T15:58:46.168Z,97646.50
2023-03-08T16:01:14.581Z,97650.81
2023-03-08T16:03:42.902Z,97655.94
2023-03-08T16:06:12.999Z,97648.25
2023-03-08T16:08:43.836Z,97649.94
2023-03-08T16:11:14.603Z,97661.09
2023-03-08T16:13:43.432Z,97663.66
2023-03-08T16:16:12.028Z,97648.31
2023-03-08T16:18:41.441Z,97653.50
2023-03-08T16:21:10.725Z,97651.84
2023-03-08T16:23:41.643Z,97647.56
2023-03-08T16:26:17.168Z,97655.25
2023-03-08T16:28:47.857Z,97650.13
2023-03-08T16:31:17.703Z,97648.41
2023-03-08T16:33:46.152Z,97642.44
2023-03-08T16:36:15.028Z,97644.16
2023-03-08T16:38:43.384Z,97650.16
2023-03-08T16:41:14.390Z,97649.34
2023-03-08T16:43:47.154Z,97642.44
2023-03-08T16:46:17.586Z,97642.44
2023-03-08T16:48:49.504Z,97643.28
2023-03-08T16:51:20.590Z,97647.56
2023-03-08T16:53:49.810Z,97641.59
2023-03-08T16:56:31.595Z,97640.72
2023-03-08T16:59:02.012Z,97641.44
2023-03-08T17:01:31.660Z,97639.66
2023-03-08T17:04:01.256Z,97647.44
2023-03-08T17:06:32.146Z,97638.06
2023-03-08T17:09:01.285Z,97644.88
2023-03-08T17:11:34.016Z,97647.56
2023-03-08T17:14:05.554Z,97633.84
2023-03-08T17:16:36.557Z,97633.03
2023-03-08T17:19:08.260Z,97632.22
2023-03-08T17:21:39.689Z,97625.22
2023-03-08T17:24:13.205Z,97629.44
2023-03-08T17:26:46.040Z,97620.81
2023-03-08T17:29:15.219Z,97629.38
2023-03-08T17:31:44.022Z,97622.56
2023-03-08T17:34:12.801Z,97621.75
2023-03-08T17:36:41.700Z,97619.19
2023-03-08T17:39:11.088Z,97623.47
2023-03-08T17:41:39.646Z,97629.44
2023-03-08T17:44:09.610Z,97631.16
2023-03-08T17:46:39.213Z,97635.44
2023-03-08T17:49:08.106Z,97638.81
2023-03-08T17:51:36.586Z,97644.81
2023-03-08T17:54:07.437Z,97638.81
2023-03-08T17:56:38.510Z,97637.97
2023-03-08T17:59:08.335Z,97644.78
2023-03-08T18:01:39.729Z,97652.34
2023-03-08T18:04:09.601Z,97651.44
2023-03-08T18:06:40.602Z,97640.34
2023-03-08T18:09:11.688Z,97642.91
2023-03-08T18:11:41.141Z,97648.88
2023-03-08T18:14:16.664Z,97641.22
2023-03-08T18:16:45.518Z,97634.38
2023-03-08T18:19:14.135Z,97638.66
2023-03-08T18:21:42.743Z,97639.47
2023-03-08T18:24:13.237Z,97635.16
2023-03-08T18:26:42.091Z,97636.84
2023-03-08T18:29:12.719Z,97635.16
2023-03-08T18:31:42.299Z,97640.19
2023-03-08T18:34:11.529Z,97632.59
2023-03-08T18:36:40.098Z,97622.34
2023-03-08T18:39:13.753Z,97628.41
2023-03-08T18:41:42.294Z,97623.22
2023-03-08T18:44:13.718Z,97623.16
2023-03-08T18:46:42.186Z,97630.03
2023-03-08T18:49:13.839Z,97620.72
2023-03-08T18:51:43.763Z,97627.53
2023-03-08T18:54:14.595Z,97629.25
2023-03-08T18:56:43.242Z,97625.88
2023-03-08T18:59:15.158Z,97625.00
2023-03-08T19:01:44.512Z,97619.88
2023-03-08T19:04:13.246Z,97619.88
2023-03-08T19:06:41.660Z,97611.34
2023-03-08T19:09:11.995Z,97616.44
2023-03-08T19:11:41.702Z,97616.38
2023-03-08T19:14:13.796Z,97612.13
2023-03-08T19:16:42.997Z,97611.25
2023-03-08T19:19:14.815Z,97611.31
2023-03-08T19:21:45.536Z,97603.63
2023-03-08T19:24:16.054Z,97602.03
2023-03-08T19:26:47.373Z,97600.34
2023-03-08T19:29:20.444Z,97610.66
2023-03-08T19:31:52.416Z,97600.44
2023-03-08T19:34:22.890Z,97597.06
2023-03-08T19:36:52.712Z,97593.56
2023-03-08T19:39:24.774Z,97603.00
2023-03-08T19:41:55.151Z,97585.97
2023-03-08T19:44:26.209Z,97595.38
2023-03-08T19:46:55.610Z,97585.97
2023-03-08T19:49:26.489Z,97589.38
2023-03-08T19:51:56.613Z,97587.56
2023-03-08T19:54:26.328Z,97587.47
2023-03-08T19:56:55.686Z,97593.44
2023-03-08T19:59:26.032Z,97590.94
2023-03-08T20:01:56.092Z,97598.59
2023-03-08T20:04:25.586Z,97590.06
2023-03-08T20:06:54.077Z,97590.06
2023-03-08T20:09:23.775Z,97589.31
2023-03-08T20:11:57.605Z,97575.72
2023-03-08T20:14:29.274Z,97568.94
2023-03-08T20:16:59.091Z,97584.28
2023-03-08T20:19:27.633Z,97579.16
2023-03-08T20:21:56.113Z,97578.28
2023-03-08T20:24:24.894Z,97577.41
2023-03-08T20:26:53.874Z,97579.13
2023-03-08T20:29:22.863Z,97582.53
2023-03-08T20:31:52.656Z,97579.16
2023-03-08T20:34:21.052Z,97587.66
2023-03-08T20:36:49.486Z,97586.81
2023-03-08T20:39:18.288Z,97573.16
2023-03-08T20:41:46.635Z,97574.91
2023-03-08T20:44:15.061Z,97580.91
2023-03-08T20:46:43.477Z,97584.34
2023-03-08T20:49:13.459Z,97580.91
2023-03-08T20:51:42.186Z,97579.16
2023-03-08T20:54:12.376Z,97573.16
2023-03-08T20:56:40.829Z,97567.97
2023-03-08T20:59:09.280Z,97563.66
2023-03-08T21:01:38.735Z,97558.50
2023-03-08T21:04:07.612Z,97566.28
2023-03-08T21:06:37.728Z,97559.34
2023-03-08T21:09:06.079Z,97554.25
2023-03-08T21:11:34.611Z,97554.22
2023-03-08T21:14:03.223Z,97554.22
2023-03-08T21:16:32.099Z,97546.41
2023-03-08T21:19:03.372Z,97539.63
2023-03-08T21:21:37.187Z,97544.69
2023-03-08T21:24:09.721Z,97548.03
2023-03-08T21:26:38.948Z,97547.22
2023-03-08T21:29:09.827Z,97550.56
2023-03-08T21:31:42.664Z,97549.78
2023-03-08T21:34:13.672Z,97547.22
2023-03-08T21:36:44.455Z,97545.47
2023-03-08T21:39:13.735Z,97549.69
2023-03-08T21:41:44.591Z,97539.47
2023-03-08T21:44:17.079Z,97533.53
2023-03-08T21:46:46.728Z,97526.78
2023-03-08T21:49:19.197Z,97526.81
2023-03-08T21:51:49.598Z,97530.25
2023-03-08T21:54:18.944Z,97528.56
2023-03-08T21:56:48.177Z,97528.56
2023-03-08T21:59:17.581Z,97532.91
2023-03-08T22:01:48.517Z,97523.50
2023-03-08T22:04:18.678Z,97514.19
2023-03-08T22:06:48.527Z,97513.38
2023-03-08T22:09:17.505Z,97502.19
2023-03-08T22:11:45.920Z,97506.41
2023-03-08T22:14:14.486Z,97503.88
2023-03-08T22:16:43.689Z,97498.69
2023-03-08T22:19:12.498Z,97498.63
2023-03-08T22:21:40.984Z,97493.50
2023-03-08T22:24:11.784Z,97490.94
2023-03-08T22:26:40.168Z,97494.31
2023-03-08T22:29:08.605Z,97485.81
2023-03-08T22:31:37.047Z,97484.94
2023-03-08T22:34:07.750Z,97480.63
2023-03-08T22:36:36.516Z,97480.59
2023-03-08T22:39:05.018Z,97475.41
2023-03-08T22:41:34.875Z,97474.50
2023-03-08T22:44:04.400Z,97478.69
2023-03-08T22:46:33.061Z,97462.47
2023-03-08T22:49:04.680Z,97458.22
2023-03-08T22:51:34.572Z,97451.44
2023-03-08T22:54:05.600Z,97448.06
2023-03-08T22:56:36.341Z,97433.59
2023-03-08T22:59:05.128Z,97431.84
2023-03-08T23:01:33.844Z,97443.69
2023-03-08T23:04:04.076Z,97434.28
2023-03-08T23:06:33.932Z,97432.59
2023-03-08T23:09:06.743Z,97419.00
2023-03-08T23:11:38.031Z,97421.59
2023-03-08T23:14:08.257Z,97433.59
2023-03-08T23:16:43.169Z,97426.72
2023-03-08T23:19:14.725Z,97431.84
2023-03-08T23:21:44.550Z,97431.84
2023-03-08T23:24:13.660Z,97421.59
2023-03-08T23:26:45.810Z,97417.38
2023-03-08T23:29:15.707Z,97421.59
2023-03-08T23:31:46.862Z,97425.84
2023-03-08T23:34:15.848Z,97416.50
2023-03-08T23:36:44.480Z,97428.47
2023-03-08T23:39:13.002Z,97424.16
2023-03-08T23:41:43.142Z,97414.81
2023-03-08T23:44:12.754Z,97428.47
2023-03-08T23:46:46.056Z,97440.41
2023-03-08T23:49:16.966Z,97442.97
2023-03-08T23:51:46.148Z,97434.41
2023-03-08T23:54:14.819Z,97420.69
2023-03-08T23:56:45.266Z,97433.47
2023-03-08T23:59:18.399Z,97432.56
